createdAt,value
2022-11-29T00:01:47.631Z,21.48
2022-11-29T00:04:16.353Z,22.67
2022-11-29T00:06:44.844Z,23.85
2022-11-29T00:09:14.377Z,18.70
2022-11-29T00:12:01.549Z,18.85
2022-11-29T00:14:30.886Z,25.23
2022-11-29T00:17:03.185Z,23.38
2022-11-29T00:19:32.415Z,21.15
2022-11-29T00:22:01.671Z,20.60
2022-11-29T00:24:32.791Z,27.30
2022-11-29T00:27:02.194Z,25.67
2022-11-29T00:29:31.549Z,22.00
2022-11-29T00:32:01.675Z,22.10
2022-11-29T00:34:30.289Z,22.05
2022-11-29T00:36:58.908Z,24.00
2022-11-29T00:39:27.717Z,23.83
2022-11-29T00:41:56.297Z,21.97
2022-11-29T00:44:24.918Z,21.95
2022-11-29T00:46:53.530Z,29.42
2022-11-29T00:49:23.441Z,24.33
2022-11-29T00:51:53.369Z,24.63
2022-11-29T00:54:23.372Z,24.75
2022-11-29T00:56:52.528Z,23.65
2022-11-29T00:59:21.059Z,27.30
2022-11-29T01:01:49.703Z,25.67
2022-11-29T01:04:18.770Z,23.70
2022-11-29T01:06:51.376Z,22.85
2022-11-29T01:09:20.691Z,26.70
2022-11-29T01:11:51.527Z,25.10
2022-11-29T01:14:20.035Z,21.98
2022-11-29T01:16:48.757Z,22.90
2022-11-29T01:19:17.306Z,22.58
2022-11-29T01:21:45.842Z,24.42
2022-11-29T01:24:15.797Z,21.00
2022-11-29T01:26:44.298Z,23.30
2022-11-29T01:29:14.314Z,22.08
2022-11-29T01:31:42.970Z,21.55
2022-11-29T01:34:12.234Z,27.23
2022-11-29T01:36:40.753Z,23.17
2022-11-29T01:39:09.347Z,22.52
2022-11-29T01:41:50.231Z,25.08
2022-11-29T01:45:11.695Z,28.73
2022-11-29T01:47:45.025Z,27.30
2022-11-29T01:50:13.654Z,27.35
2022-11-29T01:52:42.875Z,27.00
2022-11-29T01:55:11.611Z,26.90
2022-11-29T01:57:43.447Z,25.95
2022-11-29T02:00:14.562Z,26.08
2022-11-29T02:02:46.189Z,23.02
2022-11-29T02:05:16.322Z,23.75
2022-11-29T02:07:47.163Z,23.52
2022-11-29T02:10:16.755Z,21.27
2022-11-29T02:13:00.310Z,24.88
2022-11-29T02:15:42.623Z,21.52
2022-11-29T02:18:14.869Z,21.85
2022-11-29T02:21:20.671Z,26.17
2022-11-29T02:24:25.635Z,27.63
2022-11-29T02:27:08.779Z,21.10
2022-11-29T02:30:08.325Z,27.25
2022-11-29T02:33:11.071Z,25.45
2022-11-29T02:36:00.080Z,24.10
2022-11-29T02:39:04.277Z,25.27
2022-11-29T02:41:54.477Z,21.35
2022-11-29T02:44:56.019Z,25.17
2022-11-29T02:47:34.026Z,21.58
2022-11-29T02:50:20.294Z,23.25
2022-11-29T02:53:01.562Z,25.58
2022-11-29T02:55:39.508Z,22.90
2022-11-29T02:58:16.713Z,23.17
2022-11-29T03:00:54.884Z,21.83
2022-11-29T03:03:27.351Z,22.90
2022-11-29T03:06:04.578Z,20.52
2022-11-29T03:08:41.536Z,20.73
2022-11-29T03:11:19.061Z,21.05
2022-11-29T03:13:57.053Z,22.10
2022-11-29T03:16:39.695Z,22.95
2022-11-29T03:19:29.827Z,22.05
2022-11-29T03:22:09.946Z,21.30
2022-11-29T03:24:46.605Z,21.00
2022-11-29T03:27:21.858Z,27.70
2022-11-29T03:29:57.977Z,23.40
2022-11-29T03:32:33.011Z,19.48
2022-11-29T03:35:08.229Z,19.88
2022-11-29T03:37:45.342Z,20.58
2022-11-29T03:40:18.300Z,20.10
2022-11-29T03:42:54.162Z,18.27
2022-11-29T03:45:28.957Z,20.08
2022-11-29T03:48:03.023Z,18.83
2022-11-29T03:50:36.513Z,18.00
2022-11-29T03:53:16.056Z,19.38
2022-11-29T03:55:54.338Z,20.42
2022-11-29T03:58:38.849Z,19.83
2022-11-29T04:01:38.899Z,18.15
2022-11-29T04:04:39.066Z,18.77
2022-11-29T04:07:26.970Z,20.55
2022-11-29T04:10:22.711Z,32.53
2022-11-29T04:13:15.847Z,61.25
2022-11-29T04:16:22.962Z,37.25
2022-11-29T04:19:25.969Z,25.75
2022-11-29T04:22:21.219Z,38.25
2022-11-29T04:25:10.627Z,23.17
2022-11-29T04:27:59.351Z,20.15
2022-11-29T04:30:29.346Z,17.85
2022-11-29T04:33:30.461Z,19.08
2022-11-29T04:36:37.798Z,20.63
2022-11-29T04:39:30.676Z,17.65
2022-11-29T04:42:42.716Z,18.50
2022-11-29T04:45:45.938Z,21.38
2022-11-29T04:48:35.589Z,19.90
2022-11-29T04:51:14.376Z,20.20
2022-11-29T04:53:53.097Z,20.60
2022-11-29T04:56:32.380Z,23.55
2022-11-29T04:59:07.683Z,19.63
2022-11-29T05:01:49.221Z,21.05
2022-11-29T05:04:24.460Z,22.15
2022-11-29T05:07:04.147Z,17.60
2022-11-29T05:09:44.034Z,21.38
2022-11-29T05:12:20.544Z,23.88
2022-11-29T05:15:11.239Z,30.20
2022-11-29T05:17:51.834Z,43.92
2022-11-29T05:20:34.678Z,47.15
2022-11-29T05:23:19.017Z,36.53
2022-11-29T05:25:51.958Z,52.47
2022-11-29T05:28:27.251Z,56.50
2022-11-29T05:31:28.017Z,27.95
2022-11-29T05:34:30.256Z,25.20
2022-11-29T05:37:09.630Z,22.75
2022-11-29T05:39:50.597Z,19.27
2022-11-29T05:42:43.111Z,19.45
2022-11-29T05:45:18.073Z,20.17
2022-11-29T05:47:56.153Z,15.95
2022-11-29T05:50:29.742Z,15.70
2022-11-29T05:53:22.360Z,16.45
2022-11-29T05:56:00.350Z,11.98
2022-11-29T05:58:48.982Z,11.13
2022-11-29T06:01:23.696Z,9.80
2022-11-29T06:04:01.392Z,8.48
2022-11-29T06:06:39.760Z,9.15
2022-11-29T06:09:16.320Z,10.40
2022-11-29T06:11:48.560Z,11.18
2022-11-29T06:14:43.973Z,9.15
2022-11-29T06:17:35.721Z,9.52
2022-11-29T06:20:31.346Z,11.30
2022-11-29T06:23:24.732Z,12.43
2022-11-29T06:26:04.995Z,11.88
2022-11-29T06:28:44.148Z,12.60
2022-11-29T06:31:20.913Z,12.77
2022-11-29T06:33:57.600Z,13.50
2022-11-29T06:36:32.930Z,12.95
2022-11-29T06:39:01.953Z,14.00
2022-11-29T06:41:30.980Z,15.88
2022-11-29T06:43:59.947Z,14.55
2022-11-29T06:46:40.821Z,17.38
2022-11-29T06:49:13.939Z,17.08
2022-11-29T06:51:53.245Z,19.45
2022-11-29T06:54:32.902Z,16.40
2022-11-29T06:57:10.606Z,17.40
2022-11-29T06:59:52.932Z,22.02
2022-11-29T07:02:36.676Z,17.23
2022-11-29T07:05:15.126Z,22.02
2022-11-29T07:07:47.244Z,25.35
2022-11-29T07:10:18.305Z,18.45
2022-11-29T07:12:47.846Z,15.38
2022-11-29T07:15:18.354Z,14.35
2022-11-29T07:18:10.736Z,14.65
2022-11-29T07:20:49.234Z,16.40
2022-11-29T07:23:31.813Z,15.02
2022-11-29T07:26:15.108Z,13.20
2022-11-29T07:29:08.233Z,15.65
2022-11-29T07:31:52.847Z,15.02
2022-11-29T07:34:36.175Z,17.85
2022-11-29T07:37:12.096Z,17.65
2022-11-29T07:39:51.337Z,15.63
2022-11-29T07:42:27.985Z,11.43
2022-11-29T07:45:06.729Z,13.18
2022-11-29T07:47:36.117Z,15.53
2022-11-29T07:50:05.164Z,14.90
2022-11-29T07:52:34.298Z,16.13
2022-11-29T07:55:05.233Z,16.00
2022-11-29T07:57:33.824Z,13.85
2022-11-29T08:00:02.509Z,15.98
2022-11-29T08:02:40.284Z,13.20
2022-11-29T08:05:10.160Z,21.83
2022-11-29T08:07:40.618Z,19.67
2022-11-29T08:10:13.523Z,15.50
2022-11-29T08:12:44.913Z,13.05
2022-11-29T08:15:13.755Z,11.23
2022-11-29T08:17:42.400Z,12.43
2022-11-29T08:20:14.004Z,14.43
2022-11-29T08:22:42.909Z,12.25
2022-11-29T08:25:16.452Z,12.48
2022-11-29T08:27:45.377Z,12.63
2022-11-29T08:30:14.895Z,14.03
2022-11-29T08:32:51.116Z,12.88
2022-11-29T08:35:21.447Z,10.95
2022-11-29T08:37:50.740Z,12.80
2022-11-29T08:40:20.858Z,12.15
2022-11-29T08:42:50.192Z,42.70
2022-11-29T08:45:19.118Z,36.72
2022-11-29T08:47:47.907Z,18.07
2022-11-29T08:50:18.689Z,10.75
2022-11-29T08:53:06.910Z,22.00
2022-11-29T08:55:40.094Z,14.10
2022-11-29T08:58:10.754Z,15.93
2022-11-29T09:00:40.438Z,10.70
2022-11-29T09:03:27.199Z,11.65
2022-11-29T09:05:55.982Z,11.40
2022-11-29T09:08:24.591Z,11.70
2022-11-29T09:10:55.048Z,13.13
2022-11-29T09:13:23.626Z,12.60
2022-11-29T09:15:52.204Z,13.57
2022-11-29T09:18:20.795Z,12.10
2022-11-29T09:20:49.451Z,10.43
2022-11-29T09:23:17.958Z,11.38
2022-11-29T09:25:49.936Z,10.30
2022-11-29T09:28:20.065Z,13.77
2022-11-29T09:30:49.708Z,10.55
2022-11-29T09:33:18.269Z,13.45
2022-11-29T09:35:47.269Z,9.85
2022-11-29T09:38:16.234Z,10.27
2022-11-29T09:40:53.577Z,11.65
2022-11-29T09:43:34.065Z,12.40
2022-11-29T09:46:09.660Z,10.85
2022-11-29T09:48:48.631Z,11.63
2022-11-29T09:51:28.652Z,11.67
2022-11-29T09:54:10.463Z,11.43
2022-11-29T09:56:42.628Z,10.60
2022-11-29T09:59:15.623Z,10.95
2022-11-29T10:01:48.028Z,11.98
2022-11-29T10:04:19.818Z,12.73
2022-11-29T10:06:56.170Z,12.43
2022-11-29T10:09:33.909Z,11.40
2022-11-29T10:12:12.894Z,11.30
2022-11-29T10:14:47.403Z,14.45
2022-11-29T10:17:27.991Z,10.82
2022-11-29T10:20:00.014Z,13.18
2022-11-29T10:22:42.078Z,11.88
2022-11-29T10:25:17.999Z,13.23
2022-11-29T10:27:46.537Z,12.40
2022-11-29T10:30:17.934Z,11.70
2022-11-29T10:32:49.853Z,9.98
2022-11-29T10:35:20.880Z,12.85
2022-11-29T10:38:14.525Z,11.57
2022-11-29T10:40:43.214Z,11.60
2022-11-29T10:43:11.932Z,13.15
2022-11-29T10:45:50.026Z,11.52
2022-11-29T10:48:21.126Z,12.73
2022-11-29T10:50:51.522Z,11.15
2022-11-29T10:53:23.891Z,9.73
2022-11-29T10:55:57.335Z,11.88
2022-11-29T10:58:28.584Z,9.85
2022-11-29T11:01:01.201Z,11.95
2022-11-29T11:03:37.114Z,10.68
2022-11-29T11:06:13.070Z,9.55
2022-11-29T11:08:44.600Z,8.90
2022-11-29T11:11:14.251Z,10.25
2022-11-29T11:13:42.997Z,9.48
2022-11-29T11:16:18.910Z,9.35
2022-11-29T11:18:49.035Z,9.88
2022-11-29T11:21:21.934Z,11.35
2022-11-29T11:23:56.204Z,10.85
2022-11-29T11:26:26.703Z,9.73
2022-11-29T11:28:59.718Z,8.45
2022-11-29T11:31:35.738Z,11.35
2022-11-29T11:34:27.394Z,9.88
2022-11-29T11:37:12.352Z,7.05
2022-11-29T11:39:40.884Z,7.28
2022-11-29T11:42:30.999Z,10.30
2022-11-29T11:45:00.465Z,9.15
2022-11-29T11:50:09.663Z,11.93
2022-11-29T11:52:48.753Z,12.57
2022-11-29T11:55:33.279Z,9.75
2022-11-29T11:58:10.523Z,11.63
2022-11-29T12:03:40.726Z,10.63
2022-11-29T12:06:51.252Z,9.67
2022-11-29T12:09:36.178Z,10.60
2022-11-29T12:12:14.139Z,11.20
2022-11-29T12:14:51.230Z,12.88
2022-11-29T12:17:28.383Z,10.68
2022-11-29T12:20:11.886Z,8.60
2022-11-29T12:22:48.583Z,8.93
2022-11-29T12:25:23.187Z,10.43
2022-11-29T12:27:52.443Z,9.63
2022-11-29T12:30:21.251Z,10.05
2022-11-29T12:33:05.453Z,9.15
2022-11-29T12:36:07.072Z,10.32
2022-11-29T12:39:00.109Z,9.00
2022-11-29T12:41:39.190Z,13.68
2022-11-29T12:44:21.815Z,12.82
2022-11-29T12:47:34.095Z,7.95
2022-11-29T12:50:01.430Z,10.25
2022-11-29T12:52:41.051Z,7.68
2022-11-29T12:55:21.361Z,7.35
2022-11-29T12:57:58.522Z,5.95
2022-11-29T13:00:34.268Z,9.73
2022-11-29T13:03:16.672Z,7.20
2022-11-29T13:05:56.544Z,9.50
2022-11-29T13:08:49.178Z,10.77
2022-11-29T13:11:23.290Z,9.05
2022-11-29T13:14:13.525Z,8.27
2022-11-29T13:16:53.138Z,9.30
2022-11-29T13:19:28.756Z,6.78
2022-11-29T13:22:06.367Z,7.05
2022-11-29T13:24:43.160Z,6.47
2022-11-29T13:27:18.295Z,8.20
2022-11-29T13:29:47.603Z,9.75
2022-11-29T13:32:31.337Z,8.88
2022-11-29T13:35:04.739Z,17.38
2022-11-29T13:37:41.515Z,8.13
2022-11-29T13:40:24.888Z,8.43
2022-11-29T13:43:02.453Z,8.95
2022-11-29T13:45:38.912Z,9.70
2022-11-29T13:48:27.996Z,9.52
2022-11-29T13:50:57.847Z,8.65
2022-11-29T13:53:32.620Z,9.82
2022-11-29T13:56:04.060Z,8.13
2022-11-29T13:58:37.247Z,8.30
2022-11-29T14:01:09.846Z,7.72
2022-11-29T14:03:42.048Z,7.22
2022-11-29T14:06:18.471Z,7.78
2022-11-29T14:09:21.479Z,8.32
2022-11-29T14:12:01.349Z,8.93
2022-11-29T14:17:01.897Z,9.82
2022-11-29T14:19:33.964Z,7.63
2022-11-29T14:22:31.286Z,7.70
2022-11-29T14:25:49.866Z,8.68
2022-11-29T14:28:31.556Z,7.07
2022-11-29T14:31:02.078Z,8.55
2022-11-29T14:33:43.142Z,8.55
2022-11-29T14:36:32.876Z,10.77
2022-11-29T14:39:14.603Z,8.73
2022-11-29T14:41:54.656Z,9.18
2022-11-29T14:44:28.289Z,8.50
2022-11-29T14:47:08.121Z,8.10
2022-11-29T14:52:17.681Z,7.28
2022-11-29T14:54:56.852Z,9.95
2022-11-29T14:58:06.285Z,7.95
2022-11-29T15:01:09.997Z,9.75
2022-11-29T15:03:49.872Z,8.02
2022-11-29T15:06:27.261Z,8.77
2022-11-29T15:09:02.786Z,8.23
2022-11-29T15:11:51.606Z,8.35
2022-11-29T15:14:34.776Z,8.40
2022-11-29T15:17:29.900Z,9.48
2022-11-29T15:20:29.633Z,9.40
2022-11-29T15:25:31.960Z,9.35
2022-11-29T15:28:03.120Z,9.32
2022-11-29T15:30:34.839Z,11.57
2022-11-29T15:33:08.057Z,9.63
2022-11-29T15:35:38.040Z,8.93
2022-11-29T15:38:06.644Z,11.45
2022-11-29T15:40:37.333Z,9.60
2022-11-29T15:43:16.654Z,9.18
2022-11-29T15:45:49.467Z,11.60
2022-11-29T15:48:22.242Z,9.32
2022-11-29T15:51:05.557Z,12.13
2022-11-29T15:53:38.043Z,10.07
2022-11-29T15:56:13.558Z,12.30
2022-11-29T15:58:42.511Z,10.85
2022-11-29T16:01:16.702Z,9.85
2022-11-29T16:03:48.570Z,10.70
2022-11-29T16:06:27.603Z,9.73
2022-11-29T16:08:56.653Z,10.38
2022-11-29T16:11:27.938Z,10.65
2022-11-29T16:14:13.780Z,11.30
2022-11-29T16:16:44.311Z,10.38
2022-11-29T16:19:26.459Z,15.57
2022-11-29T16:22:15.117Z,9.35
2022-11-29T16:24:52.934Z,8.90
2022-11-29T16:27:23.321Z,11.10
2022-11-29T16:29:55.099Z,11.32
2022-11-29T16:32:31.105Z,8.98
2022-11-29T16:35:09.701Z,8.65
2022-11-29T16:37:43.426Z,11.82
2022-11-29T16:40:23.540Z,11.23
2022-11-29T16:43:15.810Z,15.80
2022-11-29T16:45:44.672Z,35.42
2022-11-29T16:48:30.456Z,25.70
2022-11-29T16:51:24.956Z,14.52
2022-11-29T16:53:55.960Z,11.10
2022-11-29T16:56:26.369Z,13.23
2022-11-29T16:59:21.095Z,10.57
2022-11-29T17:01:46.295Z,9.85
2022-11-29T17:04:23.807Z,12.32
2022-11-29T17:06:55.483Z,12.13
2022-11-29T17:09:26.446Z,11.68
2022-11-29T17:11:55.714Z,11.35
2022-11-29T17:14:24.476Z,10.20
2022-11-29T17:16:53.141Z,12.82
2022-11-29T17:19:23.931Z,11.18
2022-11-29T17:21:54.944Z,11.82
2022-11-29T17:24:25.013Z,14.00
2022-11-29T17:26:53.682Z,73.45
2022-11-29T17:29:22.395Z,99.57
2022-11-29T17:31:53.321Z,125.43
2022-11-29T17:34:22.228Z,91.32
2022-11-29T17:36:51.032Z,71.22
2022-11-29T17:39:21.761Z,65.87
2022-11-29T17:41:50.628Z,56.20
2022-11-29T17:44:19.361Z,41.35
2022-11-29T17:46:47.850Z,47.00
2022-11-29T17:49:18.773Z,38.10
2022-11-29T17:51:52.693Z,23.23
2022-11-29T17:54:23.287Z,17.05
2022-11-29T17:56:52.039Z,17.17
2022-11-29T17:59:20.633Z,14.88
2022-11-29T18:01:49.206Z,16.13
2022-11-29T18:04:17.889Z,19.00
2022-11-29T18:06:50.208Z,13.57
2022-11-29T18:09:20.245Z,13.98
2022-11-29T18:14:22.854Z,12.15
2022-11-29T18:16:52.388Z,14.57
2022-11-29T18:19:22.707Z,15.30
2022-11-29T18:21:51.614Z,14.55
2022-11-29T18:24:20.505Z,12.23
2022-11-29T18:26:50.603Z,13.23
2022-11-29T18:29:20.217Z,11.75
2022-11-29T18:31:48.843Z,13.35
2022-11-29T18:34:17.493Z,15.57
2022-11-29T18:36:47.228Z,42.13
2022-11-29T18:41:46.445Z,184.37
2022-11-29T18:44:17.739Z,107.53
2022-11-29T18:46:47.326Z,78.30
2022-11-29T18:51:46.302Z,58.10
2022-11-29T18:54:15.777Z,19.33
2022-11-29T18:56:45.442Z,18.40
2022-11-29T19:01:48.292Z,22.33
2022-11-29T19:04:18.964Z,18.63
2022-11-29T19:06:47.912Z,15.38
2022-11-29T19:09:18.052Z,15.52
2022-11-29T19:11:46.787Z,15.00
2022-11-29T19:14:16.746Z,17.40
2022-11-29T19:16:46.406Z,23.08
2022-11-29T19:21:43.614Z,16.75
2022-11-29T19:24:18.206Z,21.38
2022-11-29T19:26:49.917Z,18.60
2022-11-29T19:29:20.480Z,24.27
2022-11-29T19:31:50.476Z,19.20
2022-11-29T19:34:19.231Z,17.92
2022-11-29T19:36:47.957Z,14.48
2022-11-29T19:39:18.288Z,16.45
2022-11-29T19:41:48.912Z,14.38
2022-11-29T19:44:17.499Z,13.93
2022-11-29T19:46:48.925Z,13.80
2022-11-29T19:49:17.609Z,12.75
2022-11-29T19:51:46.158Z,12.55
2022-11-29T19:54:14.860Z,12.75
2022-11-29T19:56:43.665Z,13.13
2022-11-29T19:59:12.223Z,13.53
2022-11-29T20:01:42.266Z,12.73
2022-11-29T20:04:16.557Z,12.48
2022-11-29T20:06:47.702Z,12.93
2022-11-29T20:09:17.798Z,13.73
2022-11-29T20:11:46.283Z,14.35
2022-11-29T20:14:15.593Z,19.55
2022-11-29T20:16:44.166Z,31.58
2022-11-29T20:19:15.691Z,39.10
2022-11-29T20:21:45.852Z,21.58
2022-11-29T20:24:15.382Z,15.68
2022-11-29T20:26:46.241Z,12.85
2022-11-29T20:29:16.005Z,12.10
2022-11-29T20:34:22.082Z,11.43
2022-11-29T20:37:30.372Z,11.80
2022-11-29T20:40:02.772Z,12.85
2022-11-29T20:42:59.469Z,11.80
2022-11-29T20:45:28.644Z,10.95
2022-11-29T20:48:03.960Z,11.40
2022-11-29T20:50:34.614Z,12.25
2022-11-29T20:53:19.650Z,12.40
2022-11-29T20:55:49.812Z,13.60
2022-11-29T20:58:19.605Z,11.73
2022-11-29T21:00:48.367Z,11.50
2022-11-29T21:03:18.332Z,11.90
2022-11-29T21:05:48.810Z,11.43
2022-11-29T21:08:21.062Z,12.63
2022-11-29T21:10:49.780Z,10.80
2022-11-29T21:13:19.587Z,11.83
2022-11-29T21:15:48.911Z,11.88
2022-11-29T21:18:23.832Z,12.13
2022-11-29T21:21:13.338Z,12.02
2022-11-29T21:23:55.305Z,10.75
2022-11-29T21:26:29.144Z,13.35
2022-11-29T21:29:05.927Z,10.52
2022-11-29T21:31:35.122Z,11.75
2022-11-29T21:34:04.682Z,11.80
2022-11-29T21:36:34.631Z,12.25
2022-11-29T21:39:05.372Z,12.00
2022-11-29T21:41:34.441Z,10.38
2022-11-29T21:44:07.768Z,10.53
2022-11-29T21:46:36.890Z,10.18
2022-11-29T21:49:06.259Z,10.60
2022-11-29T21:51:36.543Z,12.38
2022-11-29T21:54:05.464Z,12.25
2022-11-29T21:56:34.135Z,16.03
2022-11-29T21:59:02.812Z,15.00
2022-11-29T22:01:33.882Z,14.35
2022-11-29T22:04:02.546Z,14.15
2022-11-29T22:06:31.078Z,14.27
2022-11-29T22:09:01.392Z,14.05
2022-11-29T22:11:34.455Z,13.70
2022-11-29T22:14:18.448Z,14.05
2022-11-29T22:16:49.336Z,13.10
2022-11-29T22:19:20.706Z,11.57
2022-11-29T22:21:50.591Z,11.95
2022-11-29T22:26:50.567Z,14.32
2022-11-29T22:29:19.911Z,12.18
2022-11-29T22:31:50.696Z,11.32
2022-11-29T22:34:19.321Z,12.48
2022-11-29T22:36:48.114Z,12.40
2022-11-29T22:39:16.832Z,11.53
2022-11-29T22:41:50.808Z,12.37
2022-11-29T22:44:22.736Z,11.05
2022-11-29T22:46:51.670Z,9.98
2022-11-29T22:49:20.303Z,9.98
2022-11-29T22:51:49.056Z,10.57
2022-11-29T22:54:18.093Z,12.00
2022-11-29T22:56:48.577Z,14.00
2022-11-29T22:59:17.191Z,12.38
2022-11-29T23:01:46.219Z,12.32
2022-11-29T23:04:15.010Z,11.15
2022-11-29T23:06:45.890Z,11.35
2022-11-29T23:09:16.929Z,11.23
2022-11-29T23:11:52.294Z,14.68
2022-11-29T23:14:22.202Z,11.18
2022-11-29T23:19:19.904Z,12.65
2022-11-29T23:21:48.669Z,11.13
2022-11-29T23:24:17.609Z,13.05
2022-11-29T23:26:48.803Z,13.07
2022-11-29T23:29:19.884Z,10.25
2022-11-29T23:31:50.155Z,12.02
2022-11-29T23:34:19.166Z,11.43
2022-11-29T23:36:52.562Z,11.03
2022-11-29T23:39:22.271Z,15.95
2022-11-29T23:41:53.594Z,12.02
2022-11-29T23:44:22.316Z,10.60
2022-11-29T23:46:50.876Z,11.50
2022-11-29T23:49:19.448Z,12.23
2022-11-29T23:51:49.419Z,12.02
2022-11-29T23:56:47.430Z,10.18
